sensor_id;sensor_type;location;lat;lon;timestamp;P1;durP1;ratioP1;P2;durP2;ratioP2
45618;SDS011;31343;47.520;19.144;2024-03-23T00:54:37;8.20;;;4.85;;
45618;SDS011;31343;47.520;19.144;2024-03-23T00:57:03;11.07;;;5.65;;
45618;SDS011;31343;47.520;19.144;2024-03-23T00:59:29;7.78;;;4.47;;
45618;SDS011;31343;47.520;19.144;2024-03-23T01:01:56;10.10;;;4.82;;
45618;SDS011;31343;47.520;19.144;2024-03-23T01:04:22;9.00;;;5.88;;
45618;SDS011;31343;47.520;19.144;2024-03-23T01:06:47;7.53;;;5.30;;
45618;SDS011;31343;47.520;19.144;2024-03-23T01:09:13;9.88;;;5.40;;
45618;SDS011;31343;47.520;19.144;2024-03-23T01:11:39;13.05;;;4.55;;
45618;SDS011;31343;47.520;19.144;2024-03-23T01:14:05;11.30;;;5.60;;
45618;SDS011;31343;47.520;19.144;2024-03-23T01:16:31;9.02;;;4.68;;
45618;SDS011;31343;47.520;19.144;2024-03-23T01:18:57;10.48;;;6.97;;
45618;SDS011;31343;47.520;19.144;2024-03-23T01:21:22;9.80;;;5.00;;
45618;SDS011;31343;47.520;19.144;2024-03-23T01:23:48;11.25;;;4.25;;
45618;SDS011;31343;47.520;19.144;2024-03-23T01:26:14;9.98;;;6.05;;
45618;SDS011;31343;47.520;19.144;2024-03-23T01:28:40;7.30;;;5.13;;
45618;SDS011;31343;47.520;19.144;2024-03-23T01:31:05;6.35;;;4.60;;
45618;SDS011;31343;47.520;19.144;2024-03-23T01:33:31;8.73;;;5.65;;
45618;SDS011;31343;47.520;19.144;2024-03-23T01:35:57;10.57;;;5.63;;
45618;SDS011;31343;47.520;19.144;2024-03-23T01:38:22;8.80;;;6.03;;
45618;SDS011;31343;47.520;19.144;2024-03-23T01:40:48;7.60;;;5.03;;
45618;SDS011;31343;47.520;19.144;2024-03-23T01:43:14;9.57;;;5.60;;
45618;SDS011;31343;47.520;19.144;2024-03-23T01:45:39;9.02;;;5.68;;
45618;SDS011;31343;47.520;19.144;2024-03-23T01:48:05;6.85;;;4.43;;
45618;SDS011;31343;47.520;19.144;2024-03-23T01:50:32;7.00;;;4.68;;
45618;SDS011;31343;47.520;19.144;2024-03-23T01:52:59;9.25;;;5.70;;
45618;SDS011;31343;47.520;19.144;2024-03-23T01:55:27;10.68;;;5.18;;
45618;SDS011;31343;47.520;19.144;2024-03-23T01:57:53;7.95;;;4.95;;
45618;SDS011;31343;47.520;19.144;2024-03-23T02:00:22;9.52;;;5.75;;
45618;SDS011;31343;47.520;19.144;2024-03-23T02:02:48;7.10;;;4.85;;
45618;SDS011;31343;47.520;19.144;2024-03-23T02:05:14;9.77;;;5.78;;
45618;SDS011;31343;47.520;19.144;2024-03-23T02:07:40;10.27;;;4.63;;
45618;SDS011;31343;47.520;19.144;2024-03-23T02:10:10;13.82;;;5.78;;
45618;SDS011;31343;47.520;19.144;2024-03-23T02:12:38;8.52;;;6.07;;
45618;SDS011;31343;47.520;19.144;2024-03-23T02:15:03;11.57;;;6.40;;
45618;SDS011;31343;47.520;19.144;2024-03-23T02:17:30;9.25;;;5.00;;
45618;SDS011;31343;47.520;19.144;2024-03-23T02:19:58;7.03;;;4.97;;
45618;SDS011;31343;47.520;19.144;2024-03-23T02:22:24;7.93;;;6.38;;
45618;SDS011;31343;47.520;19.144;2024-03-23T02:24:49;9.82;;;4.90;;
45618;SDS011;31343;47.520;19.144;2024-03-23T02:27:15;8.52;;;4.95;;
45618;SDS011;31343;47.520;19.144;2024-03-23T02:29:41;8.85;;;6.63;;
45618;SDS011;31343;47.520;19.144;2024-03-23T02:32:06;6.97;;;5.05;;
45618;SDS011;31343;47.520;19.144;2024-03-23T02:34:34;9.93;;;6.10;;
45618;SDS011;31343;47.520;19.144;2024-03-23T02:37:00;8.43;;;5.00;;
45618;SDS011;31343;47.520;19.144;2024-03-23T02:39:25;9.50;;;5.97;;
45618;SDS011;31343;47.520;19.144;2024-03-23T02:41:51;5.70;;;4.00;;
45618;SDS011;31343;47.520;19.144;2024-03-23T02:44:17;10.35;;;5.70;;
45618;SDS011;31343;47.520;19.144;2024-03-23T02:46:42;11.45;;;6.78;;
45618;SDS011;31343;47.520;19.144;2024-03-23T02:49:08;8.20;;;4.65;;
45618;SDS011;31343;47.520;19.144;2024-03-23T02:51:34;9.75;;;5.20;;
45618;SDS011;31343;47.520;19.144;2024-03-23T02:53:59;10.95;;;6.55;;
45618;SDS011;31343;47.520;19.144;2024-03-23T02:56:25;7.15;;;3.97;;
45618;SDS011;31343;47.520;19.144;2024-03-23T02:58:51;16.17;;;6.70;;
45618;SDS011;31343;47.520;19.144;2024-03-23T03:01:16;7.28;;;4.88;;
45618;SDS011;31343;47.520;19.144;2024-03-23T03:03:42;8.18;;;4.72;;
45618;SDS011;31343;47.520;19.144;2024-03-23T03:06:09;11.23;;;6.25;;
45618;SDS011;31343;47.520;19.144;2024-03-23T03:08:34;7.75;;;4.30;;
45618;SDS011;31343;47.520;19.144;2024-03-23T03:11:00;8.90;;;5.32;;
45618;SDS011;31343;47.520;19.144;2024-03-23T03:13:25;8.45;;;5.65;;
45618;SDS011;31343;47.520;19.144;2024-03-23T03:15:51;9.30;;;5.97;;
45618;SDS011;31343;47.520;19.144;2024-03-23T03:18:18;8.32;;;4.47;;
45618;SDS011;31343;47.520;19.144;2024-03-23T03:20:44;9.65;;;6.88;;
45618;SDS011;31343;47.520;19.144;2024-03-23T03:23:10;8.35;;;4.75;;
45618;SDS011;31343;47.520;19.144;2024-03-23T03:25:36;8.57;;;5.63;;
45618;SDS011;31343;47.520;19.144;2024-03-23T03:28:02;10.23;;;5.78;;
45618;SDS011;31343;47.520;19.144;2024-03-23T03:30:29;8.48;;;4.63;;
45618;SDS011;31343;47.520;19.144;2024-03-23T03:32:54;11.88;;;6.22;;
45618;SDS011;31343;47.520;19.144;2024-03-23T03:35:20;13.80;;;6.57;;
45618;SDS011;31343;47.520;19.144;2024-03-23T03:37:46;8.00;;;4.25;;
45618;SDS011;31343;47.520;19.144;2024-03-23T03:40:12;7.35;;;5.18;;
45618;SDS011;31343;47.520;19.144;2024-03-23T03:42:40;6.13;;;4.10;;
45618;SDS011;31343;47.520;19.144;2024-03-23T03:45:06;7.65;;;4.47;;
45618;SDS011;31343;47.520;19.144;2024-03-23T03:47:32;7.53;;;4.65;;
45618;SDS011;31343;47.520;19.144;2024-03-23T03:49:57;6.88;;;4.60;;
45618;SDS011;31343;47.520;19.144;2024-03-23T03:52:23;7.95;;;5.95;;
45618;SDS011;31343;47.520;19.144;2024-03-23T03:54:49;5.10;;;3.85;;
45618;SDS011;31343;47.520;19.144;2024-03-23T03:57:14;7.38;;;5.47;;
45618;SDS011;31343;47.520;19.144;2024-03-23T03:59:40;8.93;;;4.85;;
45618;SDS011;31343;47.520;19.144;2024-03-23T04:02:06;9.63;;;4.15;;
45618;SDS011;31343;47.520;19.144;2024-03-23T04:04:31;12.73;;;5.43;;
45618;SDS011;31343;47.520;19.144;2024-03-23T04:07:00;7.80;;;5.53;;
45618;SDS011;31343;47.520;19.144;2024-03-23T04:09:27;7.88;;;5.60;;
45618;SDS011;31343;47.520;19.144;2024-03-23T04:11:53;7.53;;;4.78;;
45618;SDS011;31343;47.520;19.144;2024-03-23T04:14:18;10.23;;;5.47;;
45618;SDS011;31343;47.520;19.144;2024-03-23T04:16:44;7.22;;;4.38;;
45618;SDS011;31343;47.520;19.144;2024-03-23T04:19:10;12.23;;;6.32;;
45618;SDS011;31343;47.520;19.144;2024-03-23T04:21:36;7.55;;;5.60;;
45618;SDS011;31343;47.520;19.144;2024-03-23T04:24:03;9.15;;;6.10;;
45618;SDS011;31343;47.520;19.144;2024-03-23T04:26:29;7.65;;;4.32;;
45618;SDS011;31343;47.520;19.144;2024-03-23T04:28:54;9.07;;;5.22;;
45618;SDS011;31343;47.520;19.144;2024-03-23T04:31:20;8.10;;;4.40;;
45618;SDS011;31343;47.520;19.144;2024-03-23T04:33:46;7.82;;;4.25;;
45618;SDS011;31343;47.520;19.144;2024-03-23T04:36:12;9.15;;;5.88;;
45618;SDS011;31343;47.520;19.144;2024-03-23T04:38:38;6.68;;;4.88;;
45618;SDS011;31343;47.520;19.144;2024-03-23T04:41:04;9.52;;;4.45;;
45618;SDS011;31343;47.520;19.144;2024-03-23T04:43:29;12.57;;;6.90;;
45618;SDS011;31343;47.520;19.144;2024-03-23T04:45:55;6.72;;;3.85;;
45618;SDS011;31343;47.520;19.144;2024-03-23T04:48:21;10.07;;;5.45;;
45618;SDS011;31343;47.520;19.144;2024-03-23T04:50:48;9.50;;;5.15;;
45618;SDS011;31343;47.520;19.144;2024-03-23T04:53:14;7.63;;;4.88;;
45618;SDS011;31343;47.520;19.144;2024-03-23T04:55:41;8.48;;;5.25;;
45618;SDS011;31343;47.520;19.144;2024-03-23T04:58:08;8.13;;;6.03;;
45618;SDS011;31343;47.520;19.144;2024-03-23T05:00:33;14.07;;;6.20;;
45618;SDS011;31343;47.520;19.144;2024-03-23T05:02:59;8.23;;;5.80;;
45618;SDS011;31343;47.520;19.144;2024-03-23T05:05:25;7.95;;;5.15;;
45618;SDS011;31343;47.520;19.144;2024-03-23T05:07:51;9.25;;;5.65;;
45618;SDS011;31343;47.520;19.144;2024-03-23T05:10:16;10.15;;;5.25;;
45618;SDS011;31343;47.520;19.144;2024-03-23T05:12:42;10.73;;;5.78;;
45618;SDS011;31343;47.520;19.144;2024-03-23T05:15:09;7.25;;;3.78;;
45618;SDS011;31343;47.520;19.144;2024-03-23T05:17:35;10.15;;;4.80;;
45618;SDS011;31343;47.520;19.144;2024-03-23T05:20:03;8.13;;;3.90;;
45618;SDS011;31343;47.520;19.144;2024-03-23T05:22:34;7.13;;;5.40;;
45618;SDS011;31343;47.520;19.144;2024-03-23T05:25:01;7.70;;;5.82;;
45618;SDS011;31343;47.520;19.144;2024-03-23T05:27:29;7.25;;;4.32;;
45618;SDS011;31343;47.520;19.144;2024-03-23T05:29:56;8.30;;;6.07;;
45618;SDS011;31343;47.520;19.144;2024-03-23T05:32:21;10.25;;;4.82;;
45618;SDS011;31343;47.520;19.144;2024-03-23T05:34:47;10.77;;;5.22;;
45618;SDS011;31343;47.520;19.144;2024-03-23T05:37:15;8.57;;;4.68;;
45618;SDS011;31343;47.520;19.144;2024-03-23T05:39:41;8.85;;;5.05;;
45618;SDS011;31343;47.520;19.144;2024-03-23T05:42:06;7.13;;;5.07;;
45618;SDS011;31343;47.520;19.144;2024-03-23T05:44:33;7.88;;;5.05;;
45618;SDS011;31343;47.520;19.144;2024-03-23T05:46:58;6.05;;;4.85;;
45618;SDS011;31343;47.520;19.144;2024-03-23T05:49:24;9.25;;;4.78;;
45618;SDS011;31343;47.520;19.144;2024-03-23T05:51:50;6.75;;;5.00;;
45618;SDS011;31343;47.520;19.144;2024-03-23T05:54:15;8.93;;;5.93;;
45618;SDS011;31343;47.520;19.144;2024-03-23T05:56:41;7.32;;;4.28;;
45618;SDS011;31343;47.520;19.144;2024-03-23T05:59:07;9.68;;;5.15;;
45618;SDS011;31343;47.520;19.144;2024-03-23T06:01:33;6.15;;;4.43;;
45618;SDS011;31343;47.520;19.144;2024-03-23T06:03:58;8.52;;;5.45;;
45618;SDS011;31343;47.520;19.144;2024-03-23T06:06:26;7.55;;;4.85;;
45618;SDS011;31343;47.520;19.144;2024-03-23T06:08:52;8.38;;;5.72;;
45618;SDS011;31343;47.520;19.144;2024-03-23T06:11:17;9.82;;;5.03;;
45618;SDS011;31343;47.520;19.144;2024-03-23T06:13:43;6.65;;;4.38;;
45618;SDS011;31343;47.520;19.144;2024-03-23T06:16:09;8.90;;;5.53;;
45618;SDS011;31343;47.520;19.144;2024-03-23T06:18:35;8.80;;;5.88;;
45618;SDS011;31343;47.520;19.144;2024-03-23T06:21:01;10.65;;;6.50;;
45618;SDS011;31343;47.520;19.144;2024-03-23T06:23:26;10.60;;;6.93;;
45618;SDS011;31343;47.520;19.144;2024-03-23T06:25:52;9.98;;;5.13;;
45618;SDS011;31343;47.520;19.144;2024-03-23T06:28:17;8.95;;;4.80;;
45618;SDS011;31343;47.520;19.144;2024-03-23T06:30:43;8.55;;;5.45;;
45618;SDS011;31343;47.520;19.144;2024-03-23T06:33:09;6.88;;;5.07;;
45618;SDS011;31343;47.520;19.144;2024-03-23T06:35:34;8.45;;;5.50;;
45618;SDS011;31343;47.520;19.144;2024-03-23T06:38:00;9.00;;;5.28;;
45618;SDS011;31343;47.520;19.144;2024-03-23T06:40:26;8.45;;;6.32;;
45618;SDS011;31343;47.520;19.144;2024-03-23T06:42:51;10.05;;;5.18;;
45618;SDS011;31343;47.520;19.144;2024-03-23T06:45:17;9.98;;;5.95;;
45618;SDS011;31343;47.520;19.144;2024-03-23T06:47:48;8.90;;;6.57;;
45618;SDS011;31343;47.520;19.144;2024-03-23T06:50:14;15.02;;;5.65;;
45618;SDS011;31343;47.520;19.144;2024-03-23T06:52:40;7.28;;;4.82;;
45618;SDS011;31343;47.520;19.144;2024-03-23T06:55:06;8.38;;;5.22;;
45618;SDS011;31343;47.520;19.144;2024-03-23T06:57:32;8.88;;;4.25;;
45618;SDS011;31343;47.520;19.144;2024-03-23T06:59:57;8.60;;;6.30;;
45618;SDS011;31343;47.520;19.144;2024-03-23T07:02:23;8.52;;;5.03;;
45618;SDS011;31343;47.520;19.144;2024-03-23T07:04:48;6.97;;;5.53;;
45618;SDS011;31343;47.520;19.144;2024-03-23T07:07:14;8.13;;;4.70;;
45618;SDS011;31343;47.520;19.144;2024-03-23T07:09:40;8.35;;;5.38;;
45618;SDS011;31343;47.520;19.144;2024-03-23T07:12:06;7.70;;;4.78;;
45618;SDS011;31343;47.520;19.144;2024-03-23T07:14:32;8.85;;;4.05;;
45618;SDS011;31343;47.520;19.144;2024-03-23T07:16:57;7.97;;;4.80;;
45618;SDS011;31343;47.520;19.144;2024-03-23T07:19:23;10.20;;;5.47;;
45618;SDS011;31343;47.520;19.144;2024-03-23T07:21:49;7.70;;;4.32;;
45618;SDS011;31343;47.520;19.144;2024-03-23T07:24:15;5.72;;;3.75;;
45618;SDS011;31343;47.520;19.144;2024-03-23T07:26:41;8.43;;;5.10;;
45618;SDS011;31343;47.520;19.144;2024-03-23T07:29:07;8.25;;;5.55;;
45618;SDS011;31343;47.520;19.144;2024-03-23T07:31:33;7.32;;;4.22;;
45618;SDS011;31343;47.520;19.144;2024-03-23T07:33:58;7.95;;;5.20;;
45618;SDS011;31343;47.520;19.144;2024-03-23T07:36:24;7.07;;;5.40;;
45618;SDS011;31343;47.520;19.144;2024-03-23T07:38:50;8.00;;;5.88;;
45618;SDS011;31343;47.520;19.144;2024-03-23T07:41:17;11.73;;;5.10;;
45618;SDS011;31343;47.520;19.144;2024-03-23T07:43:44;7.28;;;4.90;;
45618;SDS011;31343;47.520;19.144;2024-03-23T07:46:10;5.60;;;3.72;;
45618;SDS011;31343;47.520;19.144;2024-03-23T07:48:37;8.20;;;6.07;;
45618;SDS011;31343;47.520;19.144;2024-03-23T07:53:33;7.88;;;5.45;;
45618;SDS011;31343;47.520;19.144;2024-03-23T07:56:09;6.13;;;3.75;;
45618;SDS011;31343;47.520;19.144;2024-03-23T07:58:36;7.60;;;3.97;;
45618;SDS011;31343;47.520;19.144;2024-03-23T08:01:05;8.25;;;4.95;;
45618;SDS011;31343;47.520;19.144;2024-03-23T08:03:33;6.35;;;4.65;;
45618;SDS011;31343;47.520;19.144;2024-03-23T08:08:51;6.38;;;5.18;;
45618;SDS011;31343;47.520;19.144;2024-03-23T08:11:25;7.97;;;4.30;;
45618;SDS011;31343;47.520;19.144;2024-03-23T08:13:51;6.07;;;4.13;;
45618;SDS011;31343;47.520;19.144;2024-03-23T08:16:17;8.77;;;5.18;;
45618;SDS011;31343;47.520;19.144;2024-03-23T08:18:43;11.65;;;5.22;;
45618;SDS011;31343;47.520;19.144;2024-03-23T08:21:09;7.30;;;3.38;;
45618;SDS011;31343;47.520;19.144;2024-03-23T08:23:35;8.07;;;3.67;;
45618;SDS011;31343;47.520;19.144;2024-03-23T08:26:03;5.55;;;3.95;;
45618;SDS011;31343;47.520;19.144;2024-03-23T08:28:31;6.65;;;4.35;;
45618;SDS011;31343;47.520;19.144;2024-03-23T08:30:57;6.35;;;4.28;;
45618;SDS011;31343;47.520;19.144;2024-03-23T08:33:30;6.95;;;4.45;;
45618;SDS011;31343;47.520;19.144;2024-03-23T08:35:59;6.80;;;4.07;;
45618;SDS011;31343;47.520;19.144;2024-03-23T08:38:26;6.80;;;4.43;;
45618;SDS011;31343;47.520;19.144;2024-03-23T08:43:28;7.50;;;4.18;;
45618;SDS011;31343;47.520;19.144;2024-03-23T08:46:07;5.50;;;3.22;;
45618;SDS011;31343;47.520;19.144;2024-03-23T08:48:44;7.28;;;4.38;;
45618;SDS011;31343;47.520;19.144;2024-03-23T08:51:11;8.13;;;4.72;;
45618;SDS011;31343;47.520;19.144;2024-03-23T08:53:39;7.18;;;4.10;;
45618;SDS011;31343;47.520;19.144;2024-03-23T08:56:05;8.13;;;4.05;;
45618;SDS011;31343;47.520;19.144;2024-03-23T08:58:32;9.07;;;4.25;;
45618;SDS011;31343;47.520;19.144;2024-03-23T09:03:40;6.65;;;4.28;;
45618;SDS011;31343;47.520;19.144;2024-03-23T09:06:10;5.20;;;4.05;;
45618;SDS011;31343;47.520;19.144;2024-03-23T09:08:36;8.00;;;4.35;;
45618;SDS011;31343;47.520;19.144;2024-03-23T09:11:05;7.35;;;4.30;;
45618;SDS011;31343;47.520;19.144;2024-03-23T09:13:33;6.28;;;3.90;;
45618;SDS011;31343;47.520;19.144;2024-03-23T09:15:59;8.02;;;5.55;;
45618;SDS011;31343;47.520;19.144;2024-03-23T09:18:25;7.13;;;3.67;;
45618;SDS011;31343;47.520;19.144;2024-03-23T09:20:51;6.88;;;4.38;;
45618;SDS011;31343;47.520;19.144;2024-03-23T09:23:18;6.13;;;4.03;;
45618;SDS011;31343;47.520;19.144;2024-03-23T09:25:44;6.38;;;4.32;;
45618;SDS011;31343;47.520;19.144;2024-03-23T09:28:10;7.60;;;5.13;;
45618;SDS011;31343;47.520;19.144;2024-03-23T09:30:36;7.90;;;4.20;;
45618;SDS011;31343;47.520;19.144;2024-03-23T09:33:08;8.20;;;4.22;;
45618;SDS011;31343;47.520;19.144;2024-03-23T09:35:43;6.25;;;3.72;;
45618;SDS011;31343;47.520;19.144;2024-03-23T09:38:12;6.05;;;3.50;;
45618;SDS011;31343;47.520;19.144;2024-03-23T09:40:41;6.88;;;4.05;;
45618;SDS011;31343;47.520;19.144;2024-03-23T09:43:07;6.03;;;4.63;;
45618;SDS011;31343;47.520;19.144;2024-03-23T09:45:35;6.47;;;3.28;;
45618;SDS011;31343;47.520;19.144;2024-03-23T09:48:06;7.22;;;2.88;;
45618;SDS011;31343;47.520;19.144;2024-03-23T09:50:38;5.10;;;3.33;;
45618;SDS011;31343;47.520;19.144;2024-03-23T09:53:06;4.85;;;3.15;;
45618;SDS011;31343;47.520;19.144;2024-03-23T09:55:33;5.05;;;3.30;;
45618;SDS011;31343;47.520;19.144;2024-03-23T09:58:00;5.68;;;3.22;;
45618;SDS011;31343;47.520;19.144;2024-03-23T10:00:26;5.32;;;2.85;;
45618;SDS011;31343;47.520;19.144;2024-03-23T10:02:55;6.20;;;3.75;;
45618;SDS011;31343;47.520;19.144;2024-03-23T10:05:23;5.90;;;3.63;;
45618;SDS011;31343;47.520;19.144;2024-03-23T10:07:49;5.40;;;3.78;;
45618;SDS011;31343;47.520;19.144;2024-03-23T10:10:16;9.10;;;3.53;;
45618;SDS011;31343;47.520;19.144;2024-03-23T10:12:46;4.57;;;3.20;;
45618;SDS011;31343;47.520;19.144;2024-03-23T10:15:24;5.25;;;3.80;;
45618;SDS011;31343;47.520;19.144;2024-03-23T10:17:51;4.32;;;2.60;;
45618;SDS011;31343;47.520;19.144;2024-03-23T10:20:20;4.53;;;2.95;;
45618;SDS011;31343;47.520;19.144;2024-03-23T10:22:50;5.63;;;3.42;;
45618;SDS011;31343;47.520;19.144;2024-03-23T10:25:24;2.80;;;2.10;;
45618;SDS011;31343;47.520;19.144;2024-03-23T10:27:59;1.88;;;1.05;;
45618;SDS011;31343;47.520;19.144;2024-03-23T10:30:26;3.15;;;1.42;;
45618;SDS011;31343;47.520;19.144;2024-03-23T10:33:06;2.40;;;1.30;;
45618;SDS011;31343;47.520;19.144;2024-03-23T10:35:39;4.45;;;2.00;;
45618;SDS011;31343;47.520;19.144;2024-03-23T10:38:05;2.20;;;1.42;;
45618;SDS011;31343;47.520;19.144;2024-03-23T10:40:35;1.95;;;1.52;;
45618;SDS011;31343;47.520;19.144;2024-03-23T10:43:04;3.00;;;1.92;;
45618;SDS011;31343;47.520;19.144;2024-03-23T10:45:33;5.00;;;1.80;;
45618;SDS011;31343;47.520;19.144;2024-03-23T10:47:59;2.28;;;2.08;;
45618;SDS011;31343;47.520;19.144;2024-03-23T10:50:25;3.72;;;2.22;;
45618;SDS011;31343;47.520;19.144;2024-03-23T10:52:52;3.53;;;1.88;;
45618;SDS011;31343;47.520;19.144;2024-03-23T10:55:20;4.72;;;2.20;;
45618;SDS011;31343;47.520;19.144;2024-03-23T10:57:51;2.03;;;1.77;;
45618;SDS011;31343;47.520;19.144;2024-03-23T11:00:22;1.98;;;1.30;;
45618;SDS011;31343;47.520;19.144;2024-03-23T11:02:48;4.57;;;1.48;;
45618;SDS011;31343;47.520;19.144;2024-03-23T11:05:35;2.88;;;1.70;;
45618;SDS011;31343;47.520;19.144;2024-03-23T11:08:00;2.63;;;1.63;;
45618;SDS011;31343;47.520;19.144;2024-03-23T11:10:30;3.67;;;2.58;;
45618;SDS011;31343;47.520;19.144;2024-03-23T11:12:58;2.55;;;1.63;;
45618;SDS011;31343;47.520;19.144;2024-03-23T11:15:43;2.97;;;1.85;;
45618;SDS011;31343;47.520;19.144;2024-03-23T11:18:09;7.05;;;1.90;;
45618;SDS011;31343;47.520;19.144;2024-03-23T11:20:37;3.78;;;2.05;;
45618;SDS011;31343;47.520;19.144;2024-03-23T11:23:03;2.95;;;2.03;;
45618;SDS011;31343;47.520;19.144;2024-03-23T11:25:29;2.97;;;1.63;;
45618;SDS011;31343;47.520;19.144;2024-03-23T11:27:56;2.53;;;1.70;;
45618;SDS011;31343;47.520;19.144;2024-03-23T11:30:27;3.45;;;1.70;;
45618;SDS011;31343;47.520;19.144;2024-03-23T11:32:54;1.90;;;1.70;;
45618;SDS011;31343;47.520;19.144;2024-03-23T11:35:30;3.33;;;1.48;;
45618;SDS011;31343;47.520;19.144;2024-03-23T11:38:13;2.38;;;1.58;;
45618;SDS011;31343;47.520;19.144;2024-03-23T11:40:43;3.20;;;1.55;;
45618;SDS011;31343;47.520;19.144;2024-03-23T11:43:14;2.08;;;1.00;;
45618;SDS011;31343;47.520;19.144;2024-03-23T11:48:21;1.73;;;0.93;;
45618;SDS011;31343;47.520;19.144;2024-03-23T11:50:48;2.05;;;1.42;;
45618;SDS011;31343;47.520;19.144;2024-03-23T11:53:20;5.40;;;1.98;;
45618;SDS011;31343;47.520;19.144;2024-03-23T11:58:17;3.22;;;1.80;;
45618;SDS011;31343;47.520;19.144;2024-03-23T12:03:22;2.45;;;1.40;;
45618;SDS011;31343;47.520;19.144;2024-03-23T12:05:53;3.17;;;1.13;;
45618;SDS011;31343;47.520;19.144;2024-03-23T12:10:50;1.67;;;1.17;;
45618;SDS011;31343;47.520;19.144;2024-03-23T12:13:18;2.72;;;1.10;;
45618;SDS011;31343;47.520;19.144;2024-03-23T12:15:46;1.42;;;1.13;;
45618;SDS011;31343;47.520;19.144;2024-03-23T12:18:15;2.88;;;1.42;;
45618;SDS011;31343;47.520;19.144;2024-03-23T12:20:42;1.63;;;1.08;;
45618;SDS011;31343;47.520;19.144;2024-03-23T12:23:11;1.45;;;0.80;;
45618;SDS011;31343;47.520;19.144;2024-03-23T12:25:38;1.65;;;1.10;;
45618;SDS011;31343;47.520;19.144;2024-03-23T12:28:05;2.38;;;1.67;;
45618;SDS011;31343;47.520;19.144;2024-03-23T12:30:35;3.83;;;1.38;;
45618;SDS011;31343;47.520;19.144;2024-03-23T12:33:03;0.95;;;0.63;;
45618;SDS011;31343;47.520;19.144;2024-03-23T12:35:29;2.03;;;1.05;;
45618;SDS011;31343;47.520;19.144;2024-03-23T12:37:55;1.95;;;1.23;;
45618;SDS011;31343;47.520;19.144;2024-03-23T12:40:21;2.72;;;0.98;;
45618;SDS011;31343;47.520;19.144;2024-03-23T12:42:49;1.52;;;0.80;;
45618;SDS011;31343;47.520;19.144;2024-03-23T12:45:15;2.25;;;1.40;;
45618;SDS011;31343;47.520;19.144;2024-03-23T12:47:41;2.70;;;1.58;;
45618;SDS011;31343;47.520;19.144;2024-03-23T12:50:07;2.00;;;0.85;;
45618;SDS011;31343;47.520;19.144;2024-03-23T12:52:34;1.65;;;0.93;;
45618;SDS011;31343;47.520;19.144;2024-03-23T12:55:01;1.58;;;1.02;;
45618;SDS011;31343;47.520;19.144;2024-03-23T12:57:28;0.93;;;0.70;;
45618;SDS011;31343;47.520;19.144;2024-03-23T12:59:54;2.22;;;1.23;;
45618;SDS011;31343;47.520;19.144;2024-03-23T13:02:20;1.42;;;1.05;;
45618;SDS011;31343;47.520;19.144;2024-03-23T13:04:49;1.75;;;0.98;;
45618;SDS011;31343;47.520;19.144;2024-03-23T13:07:16;2.42;;;1.10;;
45618;SDS011;31343;47.520;19.144;2024-03-23T13:09:42;1.23;;;0.95;;
45618;SDS011;31343;47.520;19.144;2024-03-23T13:12:08;1.30;;;1.05;;
45618;SDS011;31343;47.520;19.144;2024-03-23T13:14:34;2.03;;;1.17;;
45618;SDS011;31343;47.520;19.144;2024-03-23T13:17:00;1.15;;;0.88;;
45618;SDS011;31343;47.520;19.144;2024-03-23T13:19:27;0.93;;;0.75;;
45618;SDS011;31343;47.520;19.144;2024-03-23T13:21:55;2.20;;;0.90;;
45618;SDS011;31343;47.520;19.144;2024-03-23T13:24:25;0.77;;;0.60;;
45618;SDS011;31343;47.520;19.144;2024-03-23T13:26:52;2.35;;;1.10;;
45618;SDS011;31343;47.520;19.144;2024-03-23T13:29:21;1.27;;;0.90;;
45618;SDS011;31343;47.520;19.144;2024-03-23T13:31:48;1.67;;;1.10;;
45618;SDS011;31343;47.520;19.144;2024-03-23T13:34:15;1.25;;;0.95;;
45618;SDS011;31343;47.520;19.144;2024-03-23T13:36:44;3.40;;;0.93;;
45618;SDS011;31343;47.520;19.144;2024-03-23T13:39:11;1.48;;;0.93;;
45618;SDS011;31343;47.520;19.144;2024-03-23T13:41:38;2.65;;;0.88;;
45618;SDS011;31343;47.520;19.144;2024-03-23T13:44:05;0.65;;;0.60;;
45618;SDS011;31343;47.520;19.144;2024-03-23T13:46:31;0.93;;;0.68;;
45618;SDS011;31343;47.520;19.144;2024-03-23T13:48:57;4.88;;;1.33;;
45618;SDS011;31343;47.520;19.144;2024-03-23T13:51:23;2.67;;;1.20;;
45618;SDS011;31343;47.520;19.144;2024-03-23T13:53:51;2.67;;;1.00;;
45618;SDS011;31343;47.520;19.144;2024-03-23T13:56:26;1.92;;;1.10;;
45618;SDS011;31343;47.520;19.144;2024-03-23T13:58:55;0.90;;;0.80;;
45618;SDS011;31343;47.520;19.144;2024-03-23T14:01:21;1.30;;;0.98;;
45618;SDS011;31343;47.520;19.144;2024-03-23T14:03:47;0.85;;;0.68;;
45618;SDS011;31343;47.520;19.144;2024-03-23T14:06:13;1.20;;;1.02;;
45618;SDS011;31343;47.520;19.144;2024-03-23T14:08:39;1.55;;;1.25;;
45618;SDS011;31343;47.520;19.144;2024-03-23T14:11:06;1.88;;;0.80;;
45618;SDS011;31343;47.520;19.144;2024-03-23T14:13:32;1.13;;;0.85;;
45618;SDS011;31343;47.520;19.144;2024-03-23T14:15:58;1.67;;;1.15;;
45618;SDS011;31343;47.520;19.144;2024-03-23T14:18:24;1.95;;;1.15;;
45618;SDS011;31343;47.520;19.144;2024-03-23T14:20:56;1.75;;;1.08;;
45618;SDS011;31343;47.520;19.144;2024-03-23T14:23:25;1.35;;;0.93;;
45618;SDS011;31343;47.520;19.144;2024-03-23T14:25:52;1.98;;;1.10;;
45618;SDS011;31343;47.520;19.144;2024-03-23T14:28:19;1.00;;;0.90;;
45618;SDS011;31343;47.520;19.144;2024-03-23T14:30:45;2.88;;;1.30;;
45618;SDS011;31343;47.520;19.144;2024-03-23T14:33:10;1.13;;;0.98;;
45618;SDS011;31343;47.520;19.144;2024-03-23T14:35:37;2.00;;;1.38;;
45618;SDS011;31343;47.520;19.144;2024-03-23T14:38:03;1.83;;;1.17;;
45618;SDS011;31343;47.520;19.144;2024-03-23T14:40:30;1.98;;;1.75;;
45618;SDS011;31343;47.520;19.144;2024-03-23T14:42:56;4.13;;;1.33;;
45618;SDS011;31343;47.520;19.144;2024-03-23T14:45:22;2.05;;;1.20;;
45618;SDS011;31343;47.520;19.144;2024-03-23T14:47:49;13.43;;;1.73;;
45618;SDS011;31343;47.520;19.144;2024-03-23T14:50:15;2.13;;;1.05;;
45618;SDS011;31343;47.520;19.144;2024-03-23T14:52:44;1.92;;;1.15;;
45618;SDS011;31343;47.520;19.144;2024-03-23T14:55:10;1.10;;;0.80;;
45618;SDS011;31343;47.520;19.144;2024-03-23T14:57:37;1.30;;;1.17;;
45618;SDS011;31343;47.520;19.144;2024-03-23T15:00:06;2.03;;;1.00;;
45618;SDS011;31343;47.520;19.144;2024-03-23T15:02:33;1.73;;;1.23;;
45618;SDS011;31343;47.520;19.144;2024-03-23T15:04:59;0.80;;;0.80;;
45618;SDS011;31343;47.520;19.144;2024-03-23T15:07:25;2.10;;;0.88;;
45618;SDS011;31343;47.520;19.144;2024-03-23T15:09:52;2.50;;;1.17;;
45618;SDS011;31343;47.520;19.144;2024-03-23T15:12:18;1.40;;;1.25;;
45618;SDS011;31343;47.520;19.144;2024-03-23T15:14:44;0.98;;;0.75;;
45618;SDS011;31343;47.520;19.144;2024-03-23T15:17:11;1.85;;;1.00;;
45618;SDS011;31343;47.520;19.144;2024-03-23T15:19:36;2.22;;;1.30;;
45618;SDS011;31343;47.520;19.144;2024-03-23T15:22:02;2.00;;;1.20;;
45618;SDS011;31343;47.520;19.144;2024-03-23T15:24:28;4.30;;;2.13;;
45618;SDS011;31343;47.520;19.144;2024-03-23T15:26:54;1.98;;;1.40;;
45618;SDS011;31343;47.520;19.144;2024-03-23T15:29:23;1.17;;;0.80;;
45618;SDS011;31343;47.520;19.144;2024-03-23T15:31:48;1.55;;;0.98;;
45618;SDS011;31343;47.520;19.144;2024-03-23T15:34:17;2.30;;;1.17;;
45618;SDS011;31343;47.520;19.144;2024-03-23T15:36:49;1.98;;;0.93;;
45618;SDS011;31343;47.520;19.144;2024-03-23T15:39:18;2.03;;;1.08;;
45618;SDS011;31343;47.520;19.144;2024-03-23T15:41:47;2.08;;;1.45;;
45618;SDS011;31343;47.520;19.144;2024-03-23T15:44:12;2.60;;;1.55;;
45618;SDS011;31343;47.520;19.144;2024-03-23T15:46:38;2.22;;;1.63;;